createdAt,value
2024-03-05T00:00:41.039Z,14.80
2024-03-05T00:03:08.147Z,16.00
2024-03-05T00:05:35.190Z,15.15
2024-03-05T00:08:04.097Z,15.57
2024-03-05T00:10:33.549Z,17.15
2024-03-05T00:13:00.823Z,15.85
2024-03-05T00:15:27.999Z,16.40
2024-03-05T00:17:55.312Z,15.95
2024-03-05T00:20:22.409Z,16.85
2024-03-05T00:22:50.024Z,15.85
2024-03-05T00:25:17.474Z,16.65
2024-03-05T00:27:45.960Z,17.17
2024-03-05T00:30:15.299Z,18.02
2024-03-05T00:32:43.010Z,16.92
2024-03-05T00:35:11.015Z,16.38
2024-03-05T00:37:39.001Z,17.20
2024-03-05T00:40:09.614Z,17.95
2024-03-05T00:42:37.292Z,16.38
2024-03-05T00:45:08.347Z,16.58
2024-03-05T00:47:36.467Z,17.50
2024-03-05T00:50:08.148Z,19.35
2024-03-05T00:52:35.337Z,18.60
2024-03-05T00:55:02.628Z,18.85
2024-03-05T00:57:30.408Z,18.65
2024-03-05T00:59:57.870Z,18.92
2024-03-05T01:02:26.535Z,19.73
2024-03-05T01:04:56.315Z,18.48
2024-03-05T01:07:23.612Z,19.52
2024-03-05T01:09:50.930Z,19.90
2024-03-05T01:12:18.061Z,19.52
2024-03-05T01:14:45.904Z,18.70
2024-03-05T01:17:13.995Z,19.45
2024-03-05T01:19:42.587Z,20.10
2024-03-05T01:22:09.580Z,20.75
2024-03-05T01:24:36.789Z,21.73
2024-03-05T01:27:06.167Z,20.52
2024-03-05T01:29:33.475Z,20.27
2024-03-05T01:32:02.988Z,19.27
2024-03-05T01:34:30.527Z,20.10
2024-03-05T01:36:59.256Z,21.38
2024-03-05T01:39:28.139Z,20.02
2024-03-05T01:41:55.327Z,20.52
2024-03-05T01:44:23.295Z,21.10
2024-03-05T01:46:54.761Z,21.65
2024-03-05T01:49:23.333Z,21.40
2024-03-05T01:51:50.825Z,21.27
2024-03-05T01:54:19.609Z,22.58
2024-03-05T01:56:49.899Z,21.10
2024-03-05T01:59:18.588Z,21.38
2024-03-05T02:01:46.625Z,21.45
2024-03-05T02:04:13.977Z,20.77
2024-03-05T02:06:43.317Z,20.92
2024-03-05T02:09:12.567Z,23.20
2024-03-05T02:11:52.546Z,21.85
2024-03-05T02:14:24.432Z,21.05
2024-03-05T02:16:52.086Z,22.02
2024-03-05T02:19:19.394Z,22.05
2024-03-05T02:21:48.270Z,21.63
2024-03-05T02:24:15.779Z,22.30
2024-03-05T02:26:43.105Z,23.23
2024-03-05T02:29:10.503Z,24.98
2024-03-05T02:31:37.753Z,24.48
2024-03-05T02:34:06.258Z,23.63
2024-03-05T02:36:33.408Z,23.88
2024-03-05T02:39:01.893Z,23.25
2024-03-05T02:41:28.959Z,23.13
2024-03-05T02:43:57.582Z,23.67
2024-03-05T02:46:25.973Z,23.55
2024-03-05T02:48:53.074Z,25.20
2024-03-05T02:51:20.109Z,25.38
2024-03-05T02:53:47.565Z,24.98
2024-03-05T02:56:16.282Z,23.95
2024-03-05T02:58:43.661Z,22.25
2024-03-05T03:01:12.191Z,22.40
2024-03-05T03:03:39.621Z,21.58
2024-03-05T03:06:06.890Z,21.90
2024-03-05T03:08:34.403Z,23.25
2024-03-05T03:11:01.782Z,24.35
2024-03-05T03:13:30.878Z,24.85
2024-03-05T03:15:57.839Z,24.63
2024-03-05T03:18:24.838Z,22.85
2024-03-05T03:20:52.140Z,24.25
2024-03-05T03:23:19.650Z,24.15
2024-03-05T03:25:46.878Z,24.38
2024-03-05T03:28:14.201Z,25.08
2024-03-05T03:30:42.759Z,24.80
2024-03-05T03:33:09.946Z,27.33
2024-03-05T03:35:37.073Z,26.55
2024-03-05T03:38:05.093Z,25.73
2024-03-05T03:40:35.029Z,24.35
2024-03-05T03:43:02.517Z,24.75
2024-03-05T03:45:29.565Z,24.77
2024-03-05T03:47:59.154Z,24.25
2024-03-05T03:50:26.380Z,25.27
2024-03-05T03:52:53.418Z,25.17
2024-03-05T03:55:20.600Z,26.17
2024-03-05T03:57:48.632Z,25.65
2024-03-05T04:00:19.931Z,25.38
2024-03-05T04:02:50.401Z,25.60
2024-03-05T04:05:18.822Z,24.67
2024-03-05T04:07:45.845Z,23.20
2024-03-05T04:10:13.276Z,24.40
2024-03-05T04:12:40.514Z,25.25
2024-03-05T04:15:13.538Z,24.67
2024-03-05T04:17:41.198Z,24.90
2024-03-05T04:20:10.663Z,24.08
2024-03-05T04:22:40.769Z,25.90
2024-03-05T04:25:08.912Z,24.63
2024-03-05T04:27:42.628Z,25.50
2024-03-05T04:30:13.585Z,25.15
2024-03-05T04:35:17.270Z,26.15
2024-03-05T04:37:46.707Z,25.15
2024-03-05T04:40:14.344Z,24.60
2024-03-05T04:42:41.296Z,24.85
2024-03-05T04:45:09.312Z,24.15
2024-03-05T04:47:37.649Z,25.05
2024-03-05T04:50:06.372Z,24.80
2024-03-05T04:52:34.741Z,23.63
2024-03-05T04:55:04.053Z,25.30
2024-03-05T04:57:31.086Z,24.13
2024-03-05T04:59:59.248Z,26.20
2024-03-05T05:02:26.278Z,25.75
2024-03-05T05:04:53.295Z,25.15
2024-03-05T05:07:24.544Z,25.25
2024-03-05T05:09:51.752Z,23.73
2024-03-05T05:12:20.109Z,24.05
2024-03-05T05:14:47.169Z,24.88
2024-03-05T05:17:15.000Z,23.77
2024-03-05T05:19:42.337Z,23.63
2024-03-05T05:22:09.347Z,24.33
2024-03-05T05:24:37.552Z,23.67
2024-03-05T05:27:07.831Z,23.20
2024-03-05T05:29:40.358Z,24.15
2024-03-05T05:32:09.634Z,22.73
2024-03-05T05:34:37.222Z,23.92
2024-03-05T05:37:06.032Z,24.38
2024-03-05T05:39:33.840Z,23.92
2024-03-05T05:42:01.262Z,25.42
2024-03-05T05:44:28.261Z,23.92
2024-03-05T05:46:57.533Z,24.98
2024-03-05T05:49:24.679Z,25.20
2024-03-05T05:51:54.838Z,26.50
2024-03-05T05:54:23.409Z,26.15
2024-03-05T05:56:50.552Z,25.13
2024-03-05T05:59:18.847Z,24.30
2024-03-05T06:01:46.465Z,26.35
2024-03-05T06:04:16.785Z,24.33
2024-03-05T06:06:44.486Z,25.90
2024-03-05T06:09:11.462Z,26.30
2024-03-05T06:11:39.276Z,25.75
2024-03-05T06:14:07.765Z,25.70
2024-03-05T06:16:35.598Z,26.35
2024-03-05T06:19:05.444Z,25.25
2024-03-05T06:21:33.965Z,25.60
2024-03-05T06:24:01.142Z,26.88
2024-03-05T06:26:29.027Z,24.90
2024-03-05T06:28:56.085Z,26.13
2024-03-05T06:31:25.128Z,24.38
2024-03-05T06:33:52.428Z,24.52
2024-03-05T06:36:20.570Z,26.33
2024-03-05T06:38:48.944Z,24.95
2024-03-05T06:41:16.479Z,25.00
2024-03-05T06:43:44.055Z,24.95
2024-03-05T06:46:11.246Z,25.17
2024-03-05T06:48:43.279Z,27.00
2024-03-05T06:51:27.775Z,26.30
2024-03-05T06:54:14.732Z,28.38
2024-03-05T06:56:42.355Z,29.33
2024-03-05T06:59:11.627Z,34.67
2024-03-05T07:01:38.982Z,30.92
2024-03-05T07:04:07.896Z,39.00
2024-03-05T07:06:35.897Z,34.05
2024-03-05T07:09:04.472Z,31.17
2024-03-05T07:11:31.598Z,30.95
2024-03-05T07:13:59.380Z,31.70
2024-03-05T07:16:27.030Z,31.23
2024-03-05T07:18:54.854Z,30.70
2024-03-05T07:21:24.236Z,32.88
2024-03-05T07:23:52.837Z,32.55
2024-03-05T07:26:22.053Z,32.25
2024-03-05T07:28:49.405Z,33.95
2024-03-05T07:31:18.508Z,31.45
2024-03-05T07:33:49.044Z,33.13
2024-03-05T07:36:19.150Z,34.45
2024-03-05T07:38:46.266Z,34.35
2024-03-05T07:41:21.587Z,36.60
2024-03-05T07:43:54.993Z,29.70
2024-03-05T07:46:22.076Z,34.00
2024-03-05T07:48:49.487Z,32.75
2024-03-05T07:51:23.909Z,34.08
2024-03-05T07:53:52.903Z,33.75
2024-03-05T07:56:20.089Z,34.72
2024-03-05T07:58:47.145Z,29.25
2024-03-05T08:01:15.713Z,31.20
2024-03-05T08:03:42.865Z,33.35
2024-03-05T08:06:09.980Z,31.20
2024-03-05T08:08:37.095Z,31.33
2024-03-05T08:11:04.404Z,33.25
2024-03-05T08:13:34.875Z,31.52
2024-03-05T08:16:05.390Z,33.13
2024-03-05T08:18:33.982Z,32.10
2024-03-05T08:21:03.284Z,29.55
2024-03-05T08:23:30.338Z,30.33
2024-03-05T08:25:57.532Z,29.98
2024-03-05T08:28:25.571Z,29.52
2024-03-05T08:30:55.034Z,27.27
2024-03-05T08:33:25.026Z,29.73
2024-03-05T08:35:53.884Z,27.27
2024-03-05T08:38:21.018Z,28.83
2024-03-05T08:40:50.454Z,28.08
2024-03-05T08:43:17.648Z,29.65
2024-03-05T08:45:44.732Z,27.70
2024-03-05T08:48:11.968Z,25.00
2024-03-05T08:50:40.725Z,26.45
2024-03-05T08:53:11.090Z,24.90
2024-03-05T08:55:38.360Z,25.77
2024-03-05T08:58:05.605Z,28.02
2024-03-05T09:00:42.720Z,23.67
2024-03-05T09:03:13.096Z,24.77
2024-03-05T09:05:42.300Z,23.60
2024-03-05T09:08:12.738Z,27.83
2024-03-05T09:10:40.185Z,25.13
2024-03-05T09:13:07.196Z,25.92
2024-03-05T09:15:34.235Z,26.02
2024-03-05T09:18:02.164Z,22.42
2024-03-05T09:20:29.221Z,23.20
2024-03-05T09:22:56.269Z,23.23
2024-03-05T09:25:24.878Z,23.40
2024-03-05T09:27:51.828Z,23.63
2024-03-05T09:30:20.684Z,24.92
2024-03-05T09:32:48.299Z,25.25
2024-03-05T09:35:17.021Z,23.70
2024-03-05T09:37:48.127Z,23.33
2024-03-05T09:40:19.666Z,24.17
2024-03-05T09:42:48.764Z,24.77
2024-03-05T09:45:17.728Z,23.58
2024-03-05T09:47:47.403Z,24.45
2024-03-05T09:50:15.204Z,25.85
2024-03-05T09:52:44.941Z,22.50
2024-03-05T09:55:13.460Z,24.05
2024-03-05T09:57:46.902Z,22.65
2024-03-05T10:00:19.989Z,22.98
2024-03-05T10:02:48.083Z,22.25
2024-03-05T10:05:19.901Z,22.10
2024-03-05T10:07:49.541Z,18.90
2024-03-05T10:10:20.638Z,20.15
2024-03-05T10:12:47.901Z,19.55
2024-03-05T10:15:19.774Z,18.00
2024-03-05T10:17:50.868Z,20.00
2024-03-05T10:20:28.825Z,20.17
2024-03-05T10:22:59.268Z,19.10
2024-03-05T10:25:27.890Z,19.35
2024-03-05T10:27:55.895Z,19.38
2024-03-05T10:30:26.409Z,18.80
2024-03-05T10:32:54.914Z,19.02
2024-03-05T10:35:22.680Z,18.98
2024-03-05T10:38:00.874Z,19.30
2024-03-05T10:40:33.662Z,19.38
2024-03-05T10:43:02.339Z,18.95
2024-03-05T10:45:33.303Z,19.55
2024-03-05T10:48:01.526Z,19.73
2024-03-05T10:50:29.424Z,20.63
2024-03-05T10:52:57.701Z,18.25
2024-03-05T10:55:26.010Z,17.67
2024-03-05T10:58:13.877Z,18.20
2024-03-05T11:00:45.230Z,18.30
2024-03-05T11:03:13.874Z,17.80
2024-03-05T11:05:49.275Z,17.40
2024-03-05T11:10:51.283Z,18.10
2024-03-05T11:13:19.751Z,18.48
2024-03-05T11:15:49.798Z,18.13
2024-03-05T11:18:28.630Z,20.70
2024-03-05T11:20:55.998Z,19.55
2024-03-05T11:23:30.746Z,20.45
2024-03-05T11:26:05.328Z,20.45
2024-03-05T11:28:32.868Z,22.08
2024-03-05T11:31:12.924Z,20.13
2024-03-05T11:33:42.129Z,22.30
2024-03-05T11:36:21.896Z,20.40
2024-03-05T11:39:03.930Z,19.42
2024-03-05T11:41:32.348Z,20.00
2024-03-05T11:43:59.623Z,17.67
2024-03-05T11:46:53.071Z,19.08
2024-03-05T11:49:21.431Z,21.90
2024-03-05T11:51:49.059Z,20.10
2024-03-05T11:54:21.838Z,20.92
2024-03-05T11:56:58.041Z,20.55
2024-03-05T11:59:33.927Z,17.38
2024-03-05T12:02:02.537Z,15.18
2024-03-05T12:04:29.682Z,12.90
2024-03-05T12:07:03.494Z,12.57
2024-03-05T12:09:30.580Z,11.85
2024-03-05T12:12:03.684Z,12.18
2024-03-05T12:14:32.113Z,13.15
2024-03-05T12:17:01.584Z,11.55
2024-03-05T12:19:30.101Z,11.80
2024-03-05T12:21:57.354Z,11.05
2024-03-05T12:24:24.956Z,10.90
2024-03-05T12:26:54.482Z,11.02
2024-03-05T12:29:34.940Z,11.23
2024-03-05T12:32:06.409Z,11.18
2024-03-05T12:34:35.435Z,10.77
2024-03-05T12:37:02.838Z,10.15
2024-03-05T12:39:29.802Z,10.88
2024-03-05T12:42:01.591Z,10.85
2024-03-05T12:44:31.839Z,11.80
2024-03-05T12:47:13.304Z,10.85
2024-03-05T12:49:46.304Z,10.68
2024-03-05T12:52:18.429Z,9.80
2024-03-05T12:54:46.444Z,9.82
2024-03-05T12:57:24.287Z,8.82
2024-03-05T12:59:51.298Z,9.10
2024-03-05T13:02:18.754Z,8.38
2024-03-05T13:04:47.682Z,8.77
2024-03-05T13:07:15.477Z,8.90
2024-03-05T13:09:42.601Z,8.40
2024-03-05T13:12:09.891Z,7.63
2024-03-05T13:14:37.394Z,7.60
2024-03-05T13:17:11.251Z,8.40
2024-03-05T13:19:38.563Z,6.93
2024-03-05T13:22:07.238Z,6.93
2024-03-05T13:24:35.396Z,10.15
2024-03-05T13:27:04.144Z,7.55
2024-03-05T13:29:31.242Z,5.18
2024-03-05T13:32:00.452Z,5.30
2024-03-05T13:34:28.675Z,5.38
2024-03-05T13:36:55.873Z,4.38
2024-03-05T13:39:24.702Z,4.38
2024-03-05T13:41:54.824Z,4.70
2024-03-05T13:44:24.201Z,4.63
2024-03-05T13:46:52.763Z,4.47
2024-03-05T13:49:25.248Z,4.43
2024-03-05T13:51:52.752Z,4.68
2024-03-05T13:54:20.346Z,4.53
2024-03-05T13:56:50.188Z,4.47
2024-03-05T13:59:17.109Z,4.65
2024-03-05T14:01:44.118Z,4.45
2024-03-05T14:04:11.598Z,3.97
2024-03-05T14:06:42.373Z,4.90
2024-03-05T14:09:12.446Z,6.63
2024-03-05T14:11:42.285Z,6.60
2024-03-05T14:14:17.898Z,6.03
2024-03-05T14:16:44.955Z,7.00
2024-03-05T14:19:12.000Z,4.45
2024-03-05T14:21:38.961Z,4.63
2024-03-05T14:24:09.256Z,4.50
2024-03-05T14:26:36.230Z,5.05
2024-03-05T14:29:05.200Z,3.63
2024-03-05T14:31:34.645Z,4.20
2024-03-05T14:34:01.957Z,4.38
2024-03-05T14:36:29.063Z,4.93
2024-03-05T14:38:56.049Z,4.60
2024-03-05T14:41:23.834Z,5.40
2024-03-05T14:43:51.611Z,5.35
2024-03-05T14:46:18.881Z,4.60
2024-03-05T14:48:47.667Z,4.78
2024-03-05T14:51:14.730Z,5.07
2024-03-05T14:53:41.957Z,6.03
2024-03-05T14:56:09.107Z,5.72
2024-03-05T14:58:36.669Z,5.60
2024-03-05T15:01:04.009Z,4.90
2024-03-05T15:03:33.254Z,6.75
2024-03-05T15:06:03.380Z,6.75
2024-03-05T15:08:30.617Z,6.82
2024-03-05T15:10:57.965Z,5.95
2024-03-05T15:13:25.146Z,5.57
2024-03-05T15:15:52.453Z,6.97
2024-03-05T15:18:21.346Z,8.52
2024-03-05T15:20:48.493Z,7.15
2024-03-05T15:23:20.379Z,6.45
2024-03-05T15:25:48.828Z,6.00
2024-03-05T15:28:15.845Z,7.22
2024-03-05T15:30:42.793Z,8.65
2024-03-05T15:33:11.136Z,7.28
2024-03-05T15:35:38.144Z,7.35
2024-03-05T15:38:09.022Z,6.40
2024-03-05T15:40:39.042Z,6.25
2024-03-05T15:43:08.282Z,7.28
2024-03-05T15:45:38.384Z,5.70
2024-03-05T15:48:09.237Z,6.45
2024-03-05T15:50:37.384Z,6.40
2024-03-05T15:53:05.068Z,6.07
2024-03-05T15:55:33.405Z,6.80
2024-03-05T15:58:02.035Z,5.43
2024-03-05T16:00:30.537Z,5.78
2024-03-05T16:03:01.131Z,7.20
2024-03-05T16:05:34.966Z,8.88
2024-03-05T16:08:08.505Z,8.18
2024-03-05T16:10:44.833Z,9.80
2024-03-05T16:13:17.696Z,9.57
2024-03-05T16:15:47.580Z,7.82
2024-03-05T16:18:15.340Z,8.02
2024-03-05T16:20:42.413Z,6.15
2024-03-05T16:23:10.620Z,6.10
2024-03-05T16:25:42.214Z,6.20
2024-03-05T16:28:15.358Z,6.43
2024-03-05T16:30:43.995Z,6.00
2024-03-05T16:33:14.822Z,5.93
2024-03-05T16:35:42.149Z,5.18
2024-03-05T16:38:10.454Z,5.45
2024-03-05T16:40:39.494Z,5.85
2024-03-05T16:43:08.083Z,5.50
2024-03-05T16:45:36.593Z,5.95
2024-03-05T16:48:08.593Z,6.43
2024-03-05T16:50:35.741Z,5.97
2024-03-05T16:53:02.930Z,6.32
2024-03-05T16:55:30.376Z,5.80
2024-03-05T16:58:00.250Z,6.55
2024-03-05T17:00:57.656Z,6.43
2024-03-05T17:03:30.010Z,7.10
2024-03-05T17:05:58.386Z,5.38
2024-03-05T17:08:26.628Z,5.97
2024-03-05T17:10:55.265Z,5.63
2024-03-05T17:13:24.431Z,5.05
2024-03-05T17:16:00.440Z,5.43
2024-03-05T17:18:31.839Z,5.00
2024-03-05T17:20:59.649Z,5.05
2024-03-05T17:23:28.005Z,5.15
2024-03-05T17:25:57.245Z,6.03
2024-03-05T17:28:27.087Z,5.93
2024-03-05T17:30:54.670Z,4.88
2024-03-05T17:33:22.414Z,5.15
2024-03-05T17:35:52.823Z,5.32
2024-03-05T17:38:20.274Z,5.05
2024-03-05T17:40:49.411Z,6.18
2024-03-05T17:43:16.385Z,5.45
2024-03-05T17:45:47.413Z,5.88
2024-03-05T17:48:14.591Z,5.72
2024-03-05T17:50:42.502Z,5.40
2024-03-05T17:53:11.187Z,5.60
2024-03-05T17:55:39.583Z,10.90
2024-03-05T17:58:06.616Z,16.42
2024-03-05T18:00:45.931Z,20.98
2024-03-05T18:03:15.257Z,21.52
2024-03-05T18:05:46.512Z,23.45
2024-03-05T18:08:16.788Z,22.83
2024-03-05T18:10:44.254Z,24.70
2024-03-05T18:13:16.029Z,24.88
2024-03-05T18:15:46.196Z,23.55
2024-03-05T18:18:15.481Z,23.60
2024-03-05T18:20:45.036Z,25.00
2024-03-05T18:23:13.064Z,25.70
2024-03-05T18:25:45.011Z,24.83
2024-03-05T18:28:12.168Z,26.15
2024-03-05T18:30:40.107Z,26.45
2024-03-05T18:33:09.752Z,24.75
2024-03-05T18:35:37.879Z,24.73
2024-03-05T18:40:41.601Z,24.63
2024-03-05T18:43:11.326Z,23.92
2024-03-05T18:45:38.735Z,23.58
2024-03-05T18:48:10.164Z,24.38
2024-03-05T18:50:38.798Z,24.30
2024-03-05T18:53:07.658Z,22.92
2024-03-05T18:55:37.649Z,24.20
2024-03-05T18:58:09.106Z,24.67
2024-03-05T19:00:38.154Z,22.58
2024-03-05T19:03:06.399Z,23.00
2024-03-05T19:05:34.909Z,25.00
2024-03-05T19:08:02.707Z,22.75
2024-03-05T19:10:31.517Z,25.02
2024-03-05T19:12:59.689Z,24.48
2024-03-05T19:15:29.766Z,25.45
2024-03-05T19:17:58.542Z,24.77
2024-03-05T19:20:26.784Z,24.83
2024-03-05T19:22:54.257Z,24.13
2024-03-05T19:25:23.356Z,25.42
2024-03-05T19:27:50.540Z,25.00
2024-03-05T19:30:18.542Z,24.88
2024-03-05T19:32:48.010Z,25.13
2024-03-05T19:35:17.728Z,23.50
2024-03-05T19:37:46.825Z,23.52
2024-03-05T19:40:18.963Z,24.17
2024-03-05T19:42:47.303Z,24.13
2024-03-05T19:45:14.903Z,23.55
2024-03-05T19:47:42.755Z,24.15
2024-03-05T19:50:14.913Z,23.67
2024-03-05T19:52:42.793Z,24.08
2024-03-05T19:55:10.698Z,23.38
2024-03-05T19:57:38.308Z,23.50
2024-03-05T20:00:13.227Z,23.58
2024-03-05T20:02:40.619Z,24.25
2024-03-05T20:05:08.552Z,22.98
2024-03-05T20:07:37.114Z,24.33
2024-03-05T20:10:04.845Z,23.00
2024-03-05T20:12:32.570Z,23.85
2024-03-05T20:15:00.087Z,23.13
2024-03-05T20:17:27.844Z,23.40
2024-03-05T20:19:55.165Z,22.70
2024-03-05T20:22:25.855Z,22.20
2024-03-05T20:24:59.874Z,23.08
2024-03-05T20:27:31.903Z,21.83
2024-03-05T20:30:00.959Z,23.75
2024-03-05T20:32:31.634Z,23.10
2024-03-05T20:34:58.886Z,22.08
2024-03-05T20:37:26.040Z,22.60
2024-03-05T20:39:57.302Z,23.67
2024-03-05T20:42:24.346Z,23.00
2024-03-05T20:44:51.402Z,25.63
2024-03-05T20:47:18.527Z,24.83
2024-03-05T20:49:46.704Z,24.42
2024-03-05T20:52:13.910Z,21.98
2024-03-05T20:54:40.893Z,17.08
2024-03-05T20:57:09.640Z,16.90
2024-03-05T20:59:36.564Z,25.50
2024-03-05T21:02:10.042Z,35.78
2024-03-05T21:04:38.493Z,22.20
2024-03-05T21:07:06.242Z,12.60
2024-03-05T21:09:34.307Z,12.27
2024-03-05T21:12:01.591Z,13.35
2024-03-05T21:14:30.058Z,12.57
2024-03-05T21:16:57.088Z,14.00
2024-03-05T21:19:27.735Z,13.00
2024-03-05T21:21:54.803Z,15.65
2024-03-05T21:24:24.442Z,15.32
2024-03-05T21:29:22.646Z,17.27
2024-03-05T21:31:52.172Z,18.95
2024-03-05T21:34:19.847Z,19.63
2024-03-05T21:36:46.805Z,19.65
2024-03-05T21:39:15.404Z,20.08
2024-03-05T21:41:43.351Z,20.52
2024-03-05T21:44:10.435Z,21.38
2024-03-05T21:46:38.297Z,20.10
2024-03-05T21:49:06.994Z,21.20
2024-03-05T21:51:34.185Z,21.65
2024-03-05T21:54:01.213Z,23.95
2024-03-05T21:56:28.396Z,22.27
2024-03-05T21:58:55.522Z,24.25
2024-03-05T22:01:23.185Z,24.65
2024-03-05T22:03:50.195Z,24.83
2024-03-05T22:06:24.253Z,25.65
2024-03-05T22:08:52.122Z,25.15
2024-03-05T22:11:19.278Z,24.58
2024-03-05T22:13:46.561Z,24.75
2024-03-05T22:16:13.547Z,25.00
2024-03-05T22:18:40.669Z,25.30
2024-03-05T22:21:07.860Z,23.83
2024-03-05T22:23:36.548Z,22.55
2024-03-05T22:26:03.817Z,20.90
2024-03-05T22:28:31.430Z,19.67
2024-03-05T22:30:59.400Z,20.10
2024-03-05T22:33:26.627Z,19.65
2024-03-05T22:35:53.613Z,20.80
2024-03-05T22:38:21.780Z,19.98
2024-03-05T22:40:50.208Z,20.88
2024-03-05T22:43:17.613Z,20.73
2024-03-05T22:45:44.698Z,20.15
2024-03-05T22:48:12.339Z,16.92
2024-03-05T22:50:39.483Z,15.75
2024-03-05T22:53:06.568Z,15.55
2024-03-05T22:55:33.621Z,15.18
2024-03-05T22:58:04.294Z,14.88
2024-03-05T23:00:40.328Z,13.88
2024-03-05T23:03:07.644Z,14.93
2024-03-05T23:05:34.688Z,15.55
2024-03-05T23:08:01.907Z,14.48
2024-03-05T23:10:29.582Z,14.07
2024-03-05T23:13:00.384Z,14.68
2024-03-05T23:15:29.053Z,14.63
2024-03-05T23:17:56.261Z,14.05
2024-03-05T23:20:23.515Z,15.60
2024-03-05T23:22:50.702Z,14.45
2024-03-05T23:25:18.476Z,14.60
2024-03-05T23:27:49.156Z,14.85
2024-03-05T23:30:20.208Z,14.45
2024-03-05T23:32:53.914Z,14.30
2024-03-05T23:35:21.676Z,14.73
2024-03-05T23:37:48.748Z,15.32
2024-03-05T23:40:15.813Z,15.85
2024-03-05T23:42:42.804Z,15.38
2024-03-05T23:45:10.779Z,16.60
2024-03-05T23:47:38.145Z,15.60
2024-03-05T23:50:10.368Z,15.23
2024-03-05T23:52:37.968Z,15.55
2024-03-05T23:55:07.186Z,15.25
2024-03-05T23:57:34.479Z,15.45
